createdAt,value
2023-01-17T00:07:11.467Z,1.55
2023-01-17T00:22:40.039Z,1.95
2023-01-17T00:37:44.267Z,0.30
2023-01-17T00:53:07.066Z,2.80
2023-01-17T01:08:41.911Z,3.30
2023-01-17T01:24:04.882Z,1.27
2023-01-17T01:39:11.080Z,0.30
2023-01-17T01:54:24.873Z,0.75
2023-01-17T02:09:31.378Z,0.20
2023-01-17T02:24:42.094Z,1.07
2023-01-17T02:39:50.122Z,0.33
2023-01-17T02:55:01.197Z,0.23
2023-01-17T03:10:07.397Z,0.42
2023-01-17T03:25:12.392Z,0.90
2023-01-17T03:40:17.579Z,0.30
2023-01-17T03:55:22.475Z,0.20
2023-01-17T04:10:27.467Z,0.30
2023-01-17T04:25:32.466Z,0.40
2023-01-17T04:40:37.378Z,0.25
2023-01-17T04:55:43.829Z,3.90
2023-01-17T05:10:48.960Z,2.83
2023-01-17T05:25:53.943Z,0.70
2023-01-17T05:41:01.465Z,1.67
2023-01-17T05:56:06.674Z,1.22
2023-01-17T06:11:11.628Z,7.45
2023-01-17T06:26:16.644Z,1.95
2023-01-17T06:41:23.320Z,1.02
2023-01-17T06:56:29.735Z,0.62
2023-01-17T07:11:34.696Z,0.40
2023-01-17T07:26:40.305Z,0.20
2023-01-17T07:41:45.258Z,0.30
2023-01-17T07:56:50.181Z,0.60
2023-01-17T08:11:55.086Z,3.27
2023-01-17T08:27:00.063Z,3.50
2023-01-17T08:42:05.030Z,0.23
2023-01-17T08:57:10.569Z,0.30
2023-01-17T09:12:21.142Z,0.65
2023-01-17T09:27:44.152Z,0.72
2023-01-17T09:59:05.717Z,1.30
2023-01-17T10:14:31.714Z,1.12
2023-01-17T10:29:37.875Z,0.30
2023-01-17T10:45:10.405Z,1.32
2023-01-17T11:00:44.149Z,0.10
2023-01-17T11:16:01.799Z,0.10
2023-01-17T11:31:09.846Z,0.10
2023-01-17T11:46:24.025Z,0.20
2023-01-17T12:01:58.005Z,0.30
2023-01-17T12:17:31.419Z,0.20
2023-01-17T12:32:47.923Z,0.10
2023-01-17T12:48:11.102Z,0.10
2023-01-17T13:03:20.291Z,0.23
2023-01-17T13:18:32.813Z,2.25
2023-01-17T13:33:58.771Z,0.30
2023-01-17T13:49:26.415Z,0.20
2023-01-17T14:04:34.363Z,0.85
2023-01-17T14:19:39.990Z,0.88
2023-01-17T14:34:47.943Z,0.17
2023-01-17T14:49:57.781Z,0.20
2023-01-17T15:05:02.907Z,0.13
2023-01-17T15:20:11.167Z,0.25
2023-01-17T15:35:20.141Z,1.15
2023-01-17T15:50:34.245Z,3.97
2023-01-17T16:05:40.944Z,0.40
2023-01-17T16:20:54.500Z,1.20
2023-01-17T16:35:59.421Z,5.87
2023-01-17T16:51:07.057Z,7.53
2023-01-17T17:06:13.819Z,1.87
2023-01-17T17:21:18.796Z,0.78
2023-01-17T17:36:23.722Z,1.95
2023-01-17T17:51:39.454Z,5.80
2023-01-17T18:06:44.793Z,3.55
2023-01-17T18:21:51.898Z,4.95
2023-01-17T18:36:57.261Z,3.47
2023-01-17T18:52:02.286Z,6.75
2023-01-17T19:07:07.241Z,6.22
2023-01-17T19:22:12.156Z,5.10
2023-01-17T19:37:18.628Z,11.63
2023-01-17T19:52:24.186Z,13.70
2023-01-17T20:07:30.854Z,8.55
2023-01-17T20:22:35.861Z,3.90
2023-01-17T20:37:41.004Z,8.05
2023-01-17T20:52:47.534Z,4.30
2023-01-17T21:07:52.634Z,8.33
2023-01-17T21:22:57.549Z,4.78
2023-01-17T21:38:02.540Z,10.82
2023-01-17T21:53:10.067Z,3.42
2023-01-17T22:08:15.289Z,2.33
2023-01-17T22:23:20.521Z,3.05
2023-01-17T22:38:25.587Z,2.05
2023-01-17T22:53:31.095Z,4.17
2023-01-17T23:08:37.134Z,3.40
2023-01-17T23:23:42.210Z,6.17
2023-01-17T23:38:47.118Z,4.78
2023-01-17T23:53:55.247Z,5.10
